sensor_id;sensor_type;location;lat;lon;timestamp;P1;durP1;ratioP1;P2;durP2;ratioP2
64235;SDS011;50564;47.402;9.740;2023-03-23T00:02:29;3.65;;;2.00;;
64235;SDS011;50564;47.402;9.740;2023-03-23T00:07:35;5.05;;;2.55;;
64235;SDS011;50564;47.402;9.740;2023-03-23T00:12:36;3.88;;;2.33;;
64235;SDS011;50564;47.402;9.740;2023-03-23T00:17:36;4.43;;;2.78;;
64235;SDS011;50564;47.402;9.740;2023-03-23T00:22:37;7.75;;;3.15;;
64235;SDS011;50564;47.402;9.740;2023-03-23T00:27:38;7.45;;;3.65;;
64235;SDS011;50564;47.402;9.740;2023-03-23T00:32:38;5.30;;;3.17;;
64235;SDS011;50564;47.402;9.740;2023-03-23T00:37:40;7.20;;;3.63;;
64235;SDS011;50564;47.402;9.740;2023-03-23T00:42:41;5.72;;;3.25;;
64235;SDS011;50564;47.402;9.740;2023-03-23T00:47:41;7.50;;;3.40;;
64235;SDS011;50564;47.402;9.740;2023-03-23T00:52:46;6.60;;;2.70;;
64235;SDS011;50564;47.402;9.740;2023-03-23T00:57:47;4.55;;;2.67;;
64235;SDS011;50564;47.402;9.740;2023-03-23T01:02:50;4.85;;;3.40;;
64235;SDS011;50564;47.402;9.740;2023-03-23T01:07:53;4.65;;;2.75;;
64235;SDS011;50564;47.402;9.740;2023-03-23T01:12:53;5.30;;;3.10;;
64235;SDS011;50564;47.402;9.740;2023-03-23T01:17:56;7.93;;;3.10;;
64235;SDS011;50564;47.402;9.740;2023-03-23T01:23:00;9.07;;;2.92;;
64235;SDS011;50564;47.402;9.740;2023-03-23T01:28:01;5.35;;;2.75;;
64235;SDS011;50564;47.402;9.740;2023-03-23T01:33:02;8.00;;;3.22;;
64235;SDS011;50564;47.402;9.740;2023-03-23T01:38:03;4.20;;;2.75;;
64235;SDS011;50564;47.402;9.740;2023-03-23T01:43:07;7.43;;;3.10;;
64235;SDS011;50564;47.402;9.740;2023-03-23T01:48:13;4.65;;;3.00;;
64235;SDS011;50564;47.402;9.740;2023-03-23T01:53:20;6.68;;;3.33;;
64235;SDS011;50564;47.402;9.740;2023-03-23T01:58:27;6.20;;;3.45;;
64235;SDS011;50564;47.402;9.740;2023-03-23T02:03:29;5.20;;;3.63;;
64235;SDS011;50564;47.402;9.740;2023-03-23T02:08:32;8.43;;;4.22;;
64235;SDS011;50564;47.402;9.740;2023-03-23T02:13:34;7.75;;;4.03;;
64235;SDS011;50564;47.402;9.740;2023-03-23T02:36:08;4.82;;;3.85;;
64235;SDS011;50564;47.402;9.740;2023-03-23T02:40:45;8.48;;;4.15;;
64235;SDS011;50564;47.402;9.740;2023-03-23T02:45:47;10.73;;;5.22;;
64235;SDS011;50564;47.402;9.740;2023-03-23T02:50:49;5.53;;;3.80;;
64235;SDS011;50564;47.402;9.740;2023-03-23T02:55:52;6.80;;;4.20;;
64235;SDS011;50564;47.402;9.740;2023-03-23T03:00:55;7.10;;;4.10;;
64235;SDS011;50564;47.402;9.740;2023-03-23T03:06:23;5.78;;;3.55;;
64235;SDS011;50564;47.402;9.740;2023-03-23T03:11:28;7.20;;;4.07;;
64235;SDS011;50564;47.402;9.740;2023-03-23T03:16:43;6.97;;;4.38;;
64235;SDS011;50564;47.402;9.740;2023-03-23T03:21:50;7.53;;;4.70;;
64235;SDS011;50564;47.402;9.740;2023-03-23T03:32:15;6.45;;;4.22;;
64235;SDS011;50564;47.402;9.740;2023-03-23T03:37:19;5.32;;;3.85;;
64235;SDS011;50564;47.402;9.740;2023-03-23T03:42:22;6.70;;;4.30;;
64235;SDS011;50564;47.402;9.740;2023-03-23T03:47:26;14.32;;;8.70;;
64235;SDS011;50564;47.402;9.740;2023-03-23T03:52:26;6.10;;;4.55;;
64235;SDS011;50564;47.402;9.740;2023-03-23T03:57:28;12.75;;;6.88;;
64235;SDS011;50564;47.402;9.740;2023-03-23T04:02:52;7.75;;;5.15;;
64235;SDS011;50564;47.402;9.740;2023-03-23T04:08:08;10.30;;;5.28;;
64235;SDS011;50564;47.402;9.740;2023-03-23T04:13:08;6.82;;;5.03;;
64235;SDS011;50564;47.402;9.740;2023-03-23T04:18:24;9.27;;;4.20;;
64235;SDS011;50564;47.402;9.740;2023-03-23T04:23:26;8.73;;;3.97;;
64235;SDS011;50564;47.402;9.740;2023-03-23T04:28:28;9.05;;;4.50;;
64235;SDS011;50564;47.402;9.740;2023-03-23T04:33:52;4.47;;;3.25;;
64235;SDS011;50564;47.402;9.740;2023-03-23T04:38:55;6.53;;;3.70;;
64235;SDS011;50564;47.402;9.740;2023-03-23T04:43:58;8.43;;;4.88;;
64235;SDS011;50564;47.402;9.740;2023-03-23T04:49:12;9.70;;;4.93;;
64235;SDS011;50564;47.402;9.740;2023-03-23T04:54:15;7.88;;;4.75;;
64235;SDS011;50564;47.402;9.740;2023-03-23T04:59:20;9.48;;;5.30;;
64235;SDS011;50564;47.402;9.740;2023-03-23T05:04:40;8.65;;;5.53;;
64235;SDS011;50564;47.402;9.740;2023-03-23T05:10:00;11.07;;;5.85;;
64235;SDS011;50564;47.402;9.740;2023-03-23T05:15:04;8.95;;;5.40;;
64235;SDS011;50564;47.402;9.740;2023-03-23T05:20:07;12.18;;;5.90;;
64235;SDS011;50564;47.402;9.740;2023-03-23T05:25:17;11.32;;;5.85;;
64235;SDS011;50564;47.402;9.740;2023-03-23T05:30:31;12.88;;;6.38;;
64235;SDS011;50564;47.402;9.740;2023-03-23T05:35:32;10.23;;;5.57;;
64235;SDS011;50564;47.402;9.740;2023-03-23T05:40:34;9.68;;;5.75;;
64235;SDS011;50564;47.402;9.740;2023-03-23T05:45:58;9.18;;;5.65;;
64235;SDS011;50564;47.402;9.740;2023-03-23T05:50:58;10.98;;;6.18;;
64235;SDS011;50564;47.402;9.740;2023-03-23T05:56:00;11.93;;;7.80;;
64235;SDS011;50564;47.402;9.740;2023-03-23T06:01:18;6.75;;;4.95;;
64235;SDS011;50564;47.402;9.740;2023-03-23T06:06:20;5.88;;;3.65;;
64235;SDS011;50564;47.402;9.740;2023-03-23T06:11:26;7.63;;;3.87;;
64235;SDS011;50564;47.402;9.740;2023-03-23T06:16:47;6.43;;;3.72;;
64235;SDS011;50564;47.402;9.740;2023-03-23T06:21:48;6.28;;;3.88;;
64235;SDS011;50564;47.402;9.740;2023-03-23T06:27:03;9.20;;;4.00;;
64235;SDS011;50564;47.402;9.740;2023-03-23T06:32:04;7.32;;;4.25;;
64235;SDS011;50564;47.402;9.740;2023-03-23T06:37:06;8.52;;;5.35;;
64235;SDS011;50564;47.402;9.740;2023-03-23T06:42:22;12.07;;;5.45;;
64235;SDS011;50564;47.402;9.740;2023-03-23T06:47:45;9.10;;;5.40;;
64235;SDS011;50564;47.402;9.740;2023-03-23T06:52:49;15.20;;;5.90;;
64235;SDS011;50564;47.402;9.740;2023-03-23T06:57:52;12.75;;;4.93;;
64235;SDS011;50564;47.402;9.740;2023-03-23T07:02:53;11.02;;;5.80;;
64235;SDS011;50564;47.402;9.740;2023-03-23T07:07:55;10.00;;;5.38;;
64235;SDS011;50564;47.402;9.740;2023-03-23T07:13:19;9.55;;;6.03;;
64235;SDS011;50564;47.402;9.740;2023-03-23T07:18:25;13.65;;;5.47;;
64235;SDS011;50564;47.402;9.740;2023-03-23T07:23:29;12.32;;;5.82;;
64235;SDS011;50564;47.402;9.740;2023-03-23T07:28:43;14.95;;;6.18;;
64235;SDS011;50564;47.402;9.740;2023-03-23T07:34:05;12.52;;;6.28;;
64235;SDS011;50564;47.402;9.740;2023-03-23T07:39:17;12.00;;;5.35;;
64235;SDS011;50564;47.402;9.740;2023-03-23T07:44:20;13.63;;;5.75;;
64235;SDS011;50564;47.402;9.740;2023-03-23T07:49:24;12.27;;;5.75;;
64235;SDS011;50564;47.402;9.740;2023-03-23T07:54:36;9.13;;;5.75;;
64235;SDS011;50564;47.402;9.740;2023-03-23T07:59:41;11.63;;;5.95;;
64235;SDS011;50564;47.402;9.740;2023-03-23T08:04:43;8.48;;;6.00;;
64235;SDS011;50564;47.402;9.740;2023-03-23T08:09:58;8.63;;;4.95;;
64235;SDS011;50564;47.402;9.740;2023-03-23T08:20:21;9.18;;;5.65;;
64235;SDS011;50564;47.402;9.740;2023-03-23T08:25:34;13.10;;;5.53;;
64235;SDS011;50564;47.402;9.740;2023-03-23T08:30:54;7.13;;;4.53;;
64235;SDS011;50564;47.402;9.740;2023-03-23T08:36:03;7.43;;;5.00;;
64235;SDS011;50564;47.402;9.740;2023-03-23T08:41:25;9.25;;;5.03;;
64235;SDS011;50564;47.402;9.740;2023-03-23T08:46:43;8.55;;;5.00;;
64235;SDS011;50564;47.402;9.740;2023-03-23T08:52:11;10.07;;;4.70;;
64235;SDS011;50564;47.402;9.740;2023-03-23T08:57:40;7.22;;;4.60;;
64235;SDS011;50564;47.402;9.740;2023-03-23T09:03:01;7.25;;;4.07;;
64235;SDS011;50564;47.402;9.740;2023-03-23T09:08:13;8.82;;;4.72;;
64235;SDS011;50564;47.402;9.740;2023-03-23T09:13:13;7.55;;;4.70;;
64235;SDS011;50564;47.402;9.740;2023-03-23T09:18:14;8.02;;;4.18;;
64235;SDS011;50564;47.402;9.740;2023-03-23T09:23:15;8.68;;;4.75;;
64235;SDS011;50564;47.402;9.740;2023-03-23T09:28:16;7.88;;;4.72;;
64235;SDS011;50564;47.402;9.740;2023-03-23T09:33:17;12.00;;;5.88;;
64235;SDS011;50564;47.402;9.740;2023-03-23T09:38:17;10.43;;;5.53;;
64235;SDS011;50564;47.402;9.740;2023-03-23T09:48:47;7.05;;;5.25;;
64235;SDS011;50564;47.402;9.740;2023-03-23T09:53:53;9.48;;;6.35;;
64235;SDS011;50564;47.402;9.740;2023-03-23T09:58:59;8.50;;;5.43;;
64235;SDS011;50564;47.402;9.740;2023-03-23T10:04:12;10.35;;;6.05;;
64235;SDS011;50564;47.402;9.740;2023-03-23T10:09:35;10.25;;;6.00;;
64235;SDS011;50564;47.402;9.740;2023-03-23T10:14:52;9.90;;;6.13;;
64235;SDS011;50564;47.402;9.740;2023-03-23T10:25:34;9.65;;;5.55;;
64235;SDS011;50564;47.402;9.740;2023-03-23T10:30:38;8.60;;;5.55;;
64235;SDS011;50564;47.402;9.740;2023-03-23T10:35:43;9.70;;;5.85;;
64235;SDS011;50564;47.402;9.740;2023-03-23T10:40:53;11.80;;;5.55;;
64235;SDS011;50564;47.402;9.740;2023-03-23T10:45:58;11.75;;;5.68;;
64235;SDS011;50564;47.402;9.740;2023-03-23T10:51:02;9.65;;;5.55;;
64235;SDS011;50564;47.402;9.740;2023-03-23T10:56:04;9.30;;;5.13;;
64235;SDS011;50564;47.402;9.740;2023-03-23T11:01:06;10.18;;;5.43;;
64235;SDS011;50564;47.402;9.740;2023-03-23T11:06:11;8.23;;;4.82;;
64235;SDS011;50564;47.402;9.740;2023-03-23T11:11:20;7.93;;;5.20;;
64235;SDS011;50564;47.402;9.740;2023-03-23T11:16:32;7.70;;;4.45;;
64235;SDS011;50564;47.402;9.740;2023-03-23T11:21:34;8.35;;;4.85;;
64235;SDS011;50564;47.402;9.740;2023-03-23T11:26:35;5.93;;;4.15;;
64235;SDS011;50564;47.402;9.740;2023-03-23T11:31:39;7.63;;;4.03;;
64235;SDS011;50564;47.402;9.740;2023-03-23T11:36:43;6.15;;;4.07;;
64235;SDS011;50564;47.402;9.740;2023-03-23T11:41:48;7.15;;;3.97;;
64235;SDS011;50564;47.402;9.740;2023-03-23T11:57:32;8.00;;;4.50;;
64235;SDS011;50564;47.402;9.740;2023-03-23T12:02:39;5.75;;;3.70;;
64235;SDS011;50564;47.402;9.740;2023-03-23T12:28:51;5.13;;;2.28;;
64235;SDS011;50564;47.402;9.740;2023-03-23T12:50:18;5.72;;;2.50;;
64235;SDS011;50564;47.402;9.740;2023-03-23T13:05:33;5.68;;;2.47;;
64235;SDS011;50564;47.402;9.740;2023-03-23T13:16:16;3.75;;;2.05;;
64235;SDS011;50564;47.402;9.740;2023-03-23T13:31:37;3.22;;;1.98;;
64235;SDS011;50564;47.402;9.740;2023-03-23T13:36:40;2.63;;;1.65;;
64235;SDS011;50564;47.402;9.740;2023-03-23T13:41:46;2.30;;;1.65;;
64235;SDS011;50564;47.402;9.740;2023-03-23T13:47:04;2.60;;;1.35;;
64235;SDS011;50564;47.402;9.740;2023-03-23T13:57:25;5.40;;;1.80;;
64235;SDS011;50564;47.402;9.740;2023-03-23T14:02:39;3.15;;;1.73;;
64235;SDS011;50564;47.402;9.740;2023-03-23T14:12:59;2.42;;;1.50;;
64235;SDS011;50564;47.402;9.740;2023-03-23T14:18:01;2.88;;;1.50;;
64235;SDS011;50564;47.402;9.740;2023-03-23T14:23:04;3.95;;;1.70;;
64235;SDS011;50564;47.402;9.740;2023-03-23T14:28:05;2.35;;;1.50;;
64235;SDS011;50564;47.402;9.740;2023-03-23T14:33:17;4.70;;;2.05;;
64235;SDS011;50564;47.402;9.740;2023-03-23T14:38:20;4.80;;;2.17;;
64235;SDS011;50564;47.402;9.740;2023-03-23T14:43:24;1.92;;;1.40;;
64235;SDS011;50564;47.402;9.740;2023-03-23T14:48:25;5.00;;;1.85;;
64235;SDS011;50564;47.402;9.740;2023-03-23T14:53:32;2.75;;;1.48;;
64235;SDS011;50564;47.402;9.740;2023-03-23T14:58:36;5.97;;;1.70;;
64235;SDS011;50564;47.402;9.740;2023-03-23T15:03:39;4.82;;;1.60;;
64235;SDS011;50564;47.402;9.740;2023-03-23T15:08:42;2.38;;;1.50;;
64235;SDS011;50564;47.402;9.740;2023-03-23T15:13:47;3.05;;;1.90;;
64235;SDS011;50564;47.402;9.740;2023-03-23T15:18:51;3.47;;;1.90;;
64235;SDS011;50564;47.402;9.740;2023-03-23T15:23:58;4.65;;;1.70;;
64235;SDS011;50564;47.402;9.740;2023-03-23T15:29:18;5.25;;;2.25;;
64235;SDS011;50564;47.402;9.740;2023-03-23T15:34:25;3.35;;;1.80;;
64235;SDS011;50564;47.402;9.740;2023-03-23T15:39:26;4.18;;;2.10;;
64235;SDS011;50564;47.402;9.740;2023-03-23T15:44:29;4.03;;;2.00;;
64235;SDS011;50564;47.402;9.740;2023-03-23T15:49:31;5.75;;;2.15;;
64235;SDS011;50564;47.402;9.740;2023-03-23T15:54:32;5.43;;;3.03;;
64235;SDS011;50564;47.402;9.740;2023-03-23T15:59:32;4.43;;;2.70;;
64235;SDS011;50564;47.402;9.740;2023-03-23T16:04:33;6.78;;;3.72;;
64235;SDS011;50564;47.402;9.740;2023-03-23T16:09:34;3.80;;;2.50;;
64235;SDS011;50564;47.402;9.740;2023-03-23T16:14:34;5.78;;;3.33;;
64235;SDS011;50564;47.402;9.740;2023-03-23T16:19:35;4.50;;;2.40;;
64235;SDS011;50564;47.402;9.740;2023-03-23T16:24:36;5.97;;;2.85;;
64235;SDS011;50564;47.402;9.740;2023-03-23T16:29:37;5.03;;;2.05;;
64235;SDS011;50564;47.402;9.740;2023-03-23T16:34:38;4.10;;;2.55;;
64235;SDS011;50564;47.402;9.740;2023-03-23T16:39:39;3.03;;;2.13;;
64235;SDS011;50564;47.402;9.740;2023-03-23T16:44:39;3.67;;;1.88;;
64235;SDS011;50564;47.402;9.740;2023-03-23T16:49:40;14.40;;;7.72;;
64235;SDS011;50564;47.402;9.740;2023-03-23T16:54:41;8.05;;;4.55;;
64235;SDS011;50564;47.402;9.740;2023-03-23T16:59:42;6.60;;;2.90;;
64235;SDS011;50564;47.402;9.740;2023-03-23T17:04:43;4.03;;;2.60;;
64235;SDS011;50564;47.402;9.740;2023-03-23T17:09:45;5.78;;;3.42;;
64235;SDS011;50564;47.402;9.740;2023-03-23T17:14:45;4.88;;;2.80;;
64235;SDS011;50564;47.402;9.740;2023-03-23T17:19:46;5.40;;;3.30;;
64235;SDS011;50564;47.402;9.740;2023-03-23T17:24:47;8.63;;;3.38;;
64235;SDS011;50564;47.402;9.740;2023-03-23T17:29:48;7.10;;;3.50;;
64235;SDS011;50564;47.402;9.740;2023-03-23T17:34:49;6.95;;;2.47;;
64235;SDS011;50564;47.402;9.740;2023-03-23T17:39:50;4.68;;;2.33;;
64235;SDS011;50564;47.402;9.740;2023-03-23T17:44:51;8.48;;;3.00;;
64235;SDS011;50564;47.402;9.740;2023-03-23T17:49:52;8.50;;;3.40;;
64235;SDS011;50564;47.402;9.740;2023-03-23T17:54:53;5.25;;;2.22;;
64235;SDS011;50564;47.402;9.740;2023-03-23T17:59:54;4.72;;;2.15;;
64235;SDS011;50564;47.402;9.740;2023-03-23T18:04:56;4.03;;;2.10;;
64235;SDS011;50564;47.402;9.740;2023-03-23T18:10:00;5.00;;;2.30;;
64235;SDS011;50564;47.402;9.740;2023-03-23T18:15:01;8.93;;;3.63;;
64235;SDS011;50564;47.402;9.740;2023-03-23T18:20:04;7.20;;;3.42;;
64235;SDS011;50564;47.402;9.740;2023-03-23T18:25:07;10.15;;;3.97;;
64235;SDS011;50564;47.402;9.740;2023-03-23T18:30:09;7.82;;;4.13;;
64235;SDS011;50564;47.402;9.740;2023-03-23T18:35:11;8.90;;;3.30;;
64235;SDS011;50564;47.402;9.740;2023-03-23T18:40:12;7.03;;;3.10;;
64235;SDS011;50564;47.402;9.740;2023-03-23T18:45:14;8.77;;;4.63;;
64235;SDS011;50564;47.402;9.740;2023-03-23T18:50:21;8.03;;;4.53;;
64235;SDS011;50564;47.402;9.740;2023-03-23T18:55:22;11.80;;;4.95;;
64235;SDS011;50564;47.402;9.740;2023-03-23T19:00:24;6.53;;;4.18;;
64235;SDS011;50564;47.402;9.740;2023-03-23T19:05:26;4.93;;;3.10;;
64235;SDS011;50564;47.402;9.740;2023-03-23T19:10:28;5.95;;;2.13;;
64235;SDS011;50564;47.402;9.740;2023-03-23T19:15:29;4.82;;;2.38;;
64235;SDS011;50564;47.402;9.740;2023-03-23T19:20:31;3.38;;;2.15;;
64235;SDS011;50564;47.402;9.740;2023-03-23T19:25:32;4.07;;;2.40;;
64235;SDS011;50564;47.402;9.740;2023-03-23T19:30:34;5.45;;;2.47;;
64235;SDS011;50564;47.402;9.740;2023-03-23T19:35:35;5.22;;;3.53;;
64235;SDS011;50564;47.402;9.740;2023-03-23T19:40:37;4.10;;;2.42;;
64235;SDS011;50564;47.402;9.740;2023-03-23T19:45:38;4.97;;;2.10;;
64235;SDS011;50564;47.402;9.740;2023-03-23T19:50:41;2.78;;;1.80;;
64235;SDS011;50564;47.402;9.740;2023-03-23T19:55:43;5.90;;;2.45;;
64235;SDS011;50564;47.402;9.740;2023-03-23T20:00:45;3.50;;;1.88;;
64235;SDS011;50564;47.402;9.740;2023-03-23T20:05:46;4.88;;;2.05;;
64235;SDS011;50564;47.402;9.740;2023-03-23T20:10:47;3.30;;;2.10;;
64235;SDS011;50564;47.402;9.740;2023-03-23T20:15:52;8.95;;;2.40;;
64235;SDS011;50564;47.402;9.740;2023-03-23T20:21:05;5.20;;;2.63;;
64235;SDS011;50564;47.402;9.740;2023-03-23T20:26:09;3.13;;;2.10;;
64235;SDS011;50564;47.402;9.740;2023-03-23T20:31:14;5.47;;;2.15;;
64235;SDS011;50564;47.402;9.740;2023-03-23T20:36:17;6.15;;;3.15;;
64235;SDS011;50564;47.402;9.740;2023-03-23T20:41:19;3.40;;;2.13;;
64235;SDS011;50564;47.402;9.740;2023-03-23T20:46:20;5.78;;;2.30;;
64235;SDS011;50564;47.402;9.740;2023-03-23T20:51:21;5.55;;;2.42;;
64235;SDS011;50564;47.402;9.740;2023-03-23T20:56:24;6.40;;;2.28;;
64235;SDS011;50564;47.402;9.740;2023-03-23T21:01:27;7.85;;;2.50;;
64235;SDS011;50564;47.402;9.740;2023-03-23T21:06:32;6.03;;;2.40;;
64235;SDS011;50564;47.402;9.740;2023-03-23T21:11:35;5.72;;;3.03;;
64235;SDS011;50564;47.402;9.740;2023-03-23T21:16:36;4.40;;;2.95;;
64235;SDS011;50564;47.402;9.740;2023-03-23T21:21:38;3.50;;;2.10;;
64235;SDS011;50564;47.402;9.740;2023-03-23T21:26:41;3.85;;;2.05;;
64235;SDS011;50564;47.402;9.740;2023-03-23T21:31:42;4.35;;;1.95;;
64235;SDS011;50564;47.402;9.740;2023-03-23T21:36:43;5.90;;;2.65;;
64235;SDS011;50564;47.402;9.740;2023-03-23T21:41:43;6.15;;;2.45;;
64235;SDS011;50564;47.402;9.740;2023-03-23T21:46:44;5.43;;;3.35;;
64235;SDS011;50564;47.402;9.740;2023-03-23T21:51:45;6.10;;;3.50;;
64235;SDS011;50564;47.402;9.740;2023-03-23T21:56:47;5.05;;;2.55;;
64235;SDS011;50564;47.402;9.740;2023-03-23T22:01:48;3.88;;;2.20;;
64235;SDS011;50564;47.402;9.740;2023-03-23T22:06:49;5.72;;;2.90;;
64235;SDS011;50564;47.402;9.740;2023-03-23T22:11:50;7.18;;;3.75;;
64235;SDS011;50564;47.402;9.740;2023-03-23T22:16:50;6.63;;;3.42;;
64235;SDS011;50564;47.402;9.740;2023-03-23T22:21:51;4.65;;;3.05;;
64235;SDS011;50564;47.402;9.740;2023-03-23T22:26:52;4.97;;;2.70;;
64235;SDS011;50564;47.402;9.740;2023-03-23T22:31:53;6.18;;;2.17;;
64235;SDS011;50564;47.402;9.740;2023-03-23T22:36:53;3.97;;;2.30;;
64235;SDS011;50564;47.402;9.740;2023-03-23T22:41:55;2.67;;;2.10;;
64235;SDS011;50564;47.402;9.740;2023-03-23T22:46:56;4.90;;;2.38;;
64235;SDS011;50564;47.402;9.740;2023-03-23T22:51:57;6.05;;;2.90;;
64235;SDS011;50564;47.402;9.740;2023-03-23T22:56:58;7.32;;;3.35;;
64235;SDS011;50564;47.402;9.740;2023-03-23T23:01:58;8.05;;;4.43;;
64235;SDS011;50564;47.402;9.740;2023-03-23T23:06:59;10.35;;;5.93;;
64235;SDS011;50564;47.402;9.740;2023-03-23T23:11:59;8.18;;;4.93;;
64235;SDS011;50564;47.402;9.740;2023-03-23T23:17:00;9.02;;;5.40;;
64235;SDS011;50564;47.402;9.740;2023-03-23T23:22:01;10.18;;;5.05;;
64235;SDS011;50564;47.402;9.740;2023-03-23T23:27:02;7.05;;;3.67;;
64235;SDS011;50564;47.402;9.740;2023-03-23T23:32:03;4.43;;;2.30;;
64235;SDS011;50564;47.402;9.740;2023-03-23T23:37:03;5.28;;;2.20;;
64235;SDS011;50564;47.402;9.740;2023-03-23T23:42:04;4.97;;;2.40;;
64235;SDS011;50564;47.402;9.740;2023-03-23T23:47:05;4.35;;;2.90;;
64235;SDS011;50564;47.402;9.740;2023-03-23T23:52:06;5.95;;;2.72;;
64235;SDS011;50564;47.402;9.740;2023-03-23T23:57:07;3.53;;;2.50;;
